sensor_id;sensor_type;location;lat;lon;timestamp;pressure;altitude;pressure_sealevel;temperature;humidity
15634;BME280;14654;48.898;8.308;2023-02-26T00:01:42;99956.06;;;-0.05;77.44
15634;BME280;14654;48.898;8.308;2023-02-26T00:04:08;99958.56;;;-0.07;77.68
15634;BME280;14654;48.898;8.308;2023-02-26T00:06:36;99953.31;;;-0.13;78.04
15634;BME280;14654;48.898;8.308;2023-02-26T00:09:03;99952.50;;;-0.12;78.12
15634;BME280;14654;48.898;8.308;2023-02-26T00:11:30;99954.00;;;-0.19;78.55
15634;BME280;14654;48.898;8.308;2023-02-26T00:13:55;99951.47;;;-0.19;78.88
15634;BME280;14654;48.898;8.308;2023-02-26T00:16:23;99951.38;;;-0.20;78.99
15634;BME280;14654;48.898;8.308;2023-02-26T00:18:50;99947.09;;;-0.23;78.93
15634;BME280;14654;48.898;8.308;2023-02-26T00:21:19;99953.47;;;-0.36;79.50
15634;BME280;14654;48.898;8.308;2023-02-26T00:23:44;99950.72;;;-0.43;80.07
15634;BME280;14654;48.898;8.308;2023-02-26T00:26:10;99948.75;;;-0.52;80.31
15634;BME280;14654;48.898;8.308;2023-02-26T00:28:35;99958.69;;;-0.60;80.49
15634;BME280;14654;48.898;8.308;2023-02-26T00:31:01;99962.69;;;-0.68;80.50
15634;BME280;14654;48.898;8.308;2023-02-26T00:33:26;99953.03;;;-0.79;80.75
15634;BME280;14654;48.898;8.308;2023-02-26T00:35:56;99954.56;;;-0.84;80.67
15634;BME280;14654;48.898;8.308;2023-02-26T00:38:24;99957.00;;;-0.87;80.82
15634;BME280;14654;48.898;8.308;2023-02-26T00:40:51;99961.91;;;-0.93;80.62
15634;BME280;14654;48.898;8.308;2023-02-26T00:43:23;99962.72;;;-0.94;80.75
15634;BME280;14654;48.898;8.308;2023-02-26T00:45:58;99966.88;;;-0.96;80.80
15634;BME280;14654;48.898;8.308;2023-02-26T00:48:50;99966.72;;;-1.01;80.97
15634;BME280;14654;48.898;8.308;2023-02-26T00:51:24;99963.97;;;-1.07;81.38
15634;BME280;14654;48.898;8.308;2023-02-26T00:54:30;99970.56;;;-1.12;81.99
15634;BME280;14654;48.898;8.308;2023-02-26T00:56:57;99972.38;;;-1.10;82.63
15634;BME280;14654;48.898;8.308;2023-02-26T00:59:24;99960.66;;;-1.04;83.30
15634;BME280;14654;48.898;8.308;2023-02-26T01:01:50;99961.56;;;-1.04;83.71
15634;BME280;14654;48.898;8.308;2023-02-26T01:04:18;99969.09;;;-1.05;84.00
15634;BME280;14654;48.898;8.308;2023-02-26T01:06:47;99973.38;;;-1.04;84.08
15634;BME280;14654;48.898;8.308;2023-02-26T01:11:53;99963.03;;;-1.11;84.15
15634;BME280;14654;48.898;8.308;2023-02-26T01:14:20;99968.84;;;-1.13;84.51
15634;BME280;14654;48.898;8.308;2023-02-26T01:17:01;99967.16;;;-1.14;84.87
15634;BME280;14654;48.898;8.308;2023-02-26T01:19:32;99967.84;;;-1.18;85.31
15634;BME280;14654;48.898;8.308;2023-02-26T01:22:19;99972.00;;;-1.20;85.89
15634;BME280;14654;48.898;8.308;2023-02-26T01:24:46;99969.22;;;-1.28;85.95
15634;BME280;14654;48.898;8.308;2023-02-26T01:27:13;99973.22;;;-1.35;86.31
15634;BME280;14654;48.898;8.308;2023-02-26T01:29:38;99971.25;;;-1.42;86.38
15634;BME280;14654;48.898;8.308;2023-02-26T01:32:37;99973.66;;;-1.47;86.16
15634;BME280;14654;48.898;8.308;2023-02-26T01:37:52;99972.53;;;-1.55;85.99
15634;BME280;14654;48.898;8.308;2023-02-26T01:43:15;99973.13;;;-1.62;85.75
15634;BME280;14654;48.898;8.308;2023-02-26T01:46:04;99970.47;;;-1.65;85.44
15634;BME280;14654;48.898;8.308;2023-02-26T01:51:17;99978.03;;;-1.67;85.25
15634;BME280;14654;48.898;8.308;2023-02-26T01:53:43;99967.84;;;-1.69;85.39
15634;BME280;14654;48.898;8.308;2023-02-26T01:56:17;99971.06;;;-1.73;85.61
15634;BME280;14654;48.898;8.308;2023-02-26T01:58:43;99979.53;;;-1.72;85.93
15634;BME280;14654;48.898;8.308;2023-02-26T02:01:11;99966.09;;;-1.70;86.09
15634;BME280;14654;48.898;8.308;2023-02-26T02:03:38;99970.47;;;-1.65;86.05
15634;BME280;14654;48.898;8.308;2023-02-26T02:06:13;99977.38;;;-1.61;86.24
15634;BME280;14654;48.898;8.308;2023-02-26T02:08:40;99979.13;;;-1.60;86.20
15634;BME280;14654;48.898;8.308;2023-02-26T02:11:08;99972.41;;;-1.58;86.36
15634;BME280;14654;48.898;8.308;2023-02-26T02:13:41;99976.81;;;-1.54;86.29
15634;BME280;14654;48.898;8.308;2023-02-26T02:25:03;99982.16;;;-1.46;86.51
15634;BME280;14654;48.898;8.308;2023-02-26T02:30:34;99987.00;;;-1.52;87.73
15634;BME280;14654;48.898;8.308;2023-02-26T02:33:09;99992.03;;;-1.54;88.63
15634;BME280;14654;48.898;8.308;2023-02-26T02:36:14;99996.06;;;-1.59;89.18
15634;BME280;14654;48.898;8.308;2023-02-26T02:38:47;100005.28;;;-1.61;89.31
15634;BME280;14654;48.898;8.308;2023-02-26T02:41:31;99997.47;;;-1.67;89.48
15634;BME280;14654;48.898;8.308;2023-02-26T02:44:01;100005.72;;;-1.73;89.32
15634;BME280;14654;48.898;8.308;2023-02-26T02:46:31;100002.28;;;-1.75;89.09
15634;BME280;14654;48.898;8.308;2023-02-26T02:49:03;100002.00;;;-1.83;89.36
15634;BME280;14654;48.898;8.308;2023-02-26T02:51:33;100002.09;;;-1.80;89.01
15634;BME280;14654;48.898;8.308;2023-02-26T02:54:10;99988.50;;;-1.82;88.86
15634;BME280;14654;48.898;8.308;2023-02-26T02:56:42;99993.47;;;-1.85;89.22
15634;BME280;14654;48.898;8.308;2023-02-26T02:59:32;99993.47;;;-1.85;89.31
15634;BME280;14654;48.898;8.308;2023-02-26T03:02:15;100005.16;;;-1.89;89.33
15634;BME280;14654;48.898;8.308;2023-02-26T03:04:43;100010.06;;;-1.93;89.45
15634;BME280;14654;48.898;8.308;2023-02-26T03:07:09;100004.81;;;-1.98;89.24
15634;BME280;14654;48.898;8.308;2023-02-26T03:09:35;100008.00;;;-2.04;89.56
15634;BME280;14654;48.898;8.308;2023-02-26T03:12:00;100011.22;;;-2.08;89.19
15634;BME280;14654;48.898;8.308;2023-02-26T03:14:28;100021.22;;;-2.11;89.43
15634;BME280;14654;48.898;8.308;2023-02-26T03:25:54;100026.78;;;-1.98;90.30
15634;BME280;14654;48.898;8.308;2023-02-26T03:31:06;100026.66;;;-2.02;91.04
15634;BME280;14654;48.898;8.308;2023-02-26T03:36:42;100036.66;;;-2.06;91.54
15634;BME280;14654;48.898;8.308;2023-02-26T03:39:19;100036.53;;;-2.09;91.71
15634;BME280;14654;48.898;8.308;2023-02-26T03:42:27;100038.88;;;-2.14;91.75
15634;BME280;14654;48.898;8.308;2023-02-26T03:44:58;100040.41;;;-2.18;92.00
15634;BME280;14654;48.898;8.308;2023-02-26T03:47:25;100049.59;;;-2.21;91.91
15634;BME280;14654;48.898;8.308;2023-02-26T03:49:55;100044.34;;;-2.26;92.00
15634;BME280;14654;48.898;8.308;2023-02-26T03:52:22;100051.91;;;-2.27;91.68
15634;BME280;14654;48.898;8.308;2023-02-26T03:54:59;100048.22;;;-2.34;91.62
15634;BME280;14654;48.898;8.308;2023-02-26T03:57:26;100059.13;;;-2.37;91.56
15634;BME280;14654;48.898;8.308;2023-02-26T03:59:51;100054.13;;;-2.35;91.34
15634;BME280;14654;48.898;8.308;2023-02-26T04:02:24;100056.47;;;-2.40;91.32
15634;BME280;14654;48.898;8.308;2023-02-26T04:07:31;100061.34;;;-2.45;91.04
15634;BME280;14654;48.898;8.308;2023-02-26T04:09:57;100065.44;;;-2.48;91.11
15634;BME280;14654;48.898;8.308;2023-02-26T04:12:26;100067.94;;;-2.50;91.13
15634;BME280;14654;48.898;8.308;2023-02-26T04:14:52;100064.50;;;-2.50;91.37
15634;BME280;14654;48.898;8.308;2023-02-26T04:17:18;100065.25;;;-2.53;91.36
15634;BME280;14654;48.898;8.308;2023-02-26T04:19:43;100063.84;;;-2.46;92.01
15634;BME280;14654;48.898;8.308;2023-02-26T04:22:09;100076.69;;;-2.41;92.38
15634;BME280;14654;48.898;8.308;2023-02-26T04:24:34;100073.53;;;-2.36;92.96
15634;BME280;14654;48.898;8.308;2023-02-26T04:27:00;100069.22;;;-2.38;93.13
15634;BME280;14654;48.898;8.308;2023-02-26T04:29:25;100075.94;;;-2.39;93.43
15634;BME280;14654;48.898;8.308;2023-02-26T04:31:51;100070.75;;;-2.42;93.33
15634;BME280;14654;48.898;8.308;2023-02-26T04:34:17;100069.75;;;-2.46;93.14
15634;BME280;14654;48.898;8.308;2023-02-26T04:36:42;100074.81;;;-2.46;93.14
15634;BME280;14654;48.898;8.308;2023-02-26T04:39:08;100083.81;;;-2.54;93.09
15634;BME280;14654;48.898;8.308;2023-02-26T04:41:37;100083.72;;;-2.55;92.99
15634;BME280;14654;48.898;8.308;2023-02-26T04:44:03;100085.41;;;-2.56;92.98
15634;BME280;14654;48.898;8.308;2023-02-26T04:46:29;100089.53;;;-2.58;93.28
15634;BME280;14654;48.898;8.308;2023-02-26T04:48:55;100098.03;;;-2.57;93.20
15634;BME280;14654;48.898;8.308;2023-02-26T04:51:20;100098.06;;;-2.56;93.72
15634;BME280;14654;48.898;8.308;2023-02-26T04:53:45;100098.06;;;-2.56;93.74
15634;BME280;14654;48.898;8.308;2023-02-26T04:56:11;100108.81;;;-2.62;93.84
15634;BME280;14654;48.898;8.308;2023-02-26T04:58:37;100106.09;;;-2.66;94.19
15634;BME280;14654;48.898;8.308;2023-02-26T05:01:02;100106.03;;;-2.68;93.88
15634;BME280;14654;48.898;8.308;2023-02-26T05:03:27;100101.56;;;-2.73;93.84
15634;BME280;14654;48.898;8.308;2023-02-26T05:05:53;100108.19;;;-2.77;94.15
15634;BME280;14654;48.898;8.308;2023-02-26T05:08:18;100103.91;;;-2.78;94.16
15634;BME280;14654;48.898;8.308;2023-02-26T05:10:44;100110.44;;;-2.83;94.02
15634;BME280;14654;48.898;8.308;2023-02-26T05:13:10;100104.53;;;-2.84;94.16
15634;BME280;14654;48.898;8.308;2023-02-26T05:15:35;100099.31;;;-2.87;94.31
15634;BME280;14654;48.898;8.308;2023-02-26T05:18:00;100112.59;;;-2.93;94.53
15634;BME280;14654;48.898;8.308;2023-02-26T05:20:26;100113.41;;;-2.94;94.81
15634;BME280;14654;48.898;8.308;2023-02-26T05:22:51;100111.59;;;-2.96;94.77
15634;BME280;14654;48.898;8.308;2023-02-26T05:25:16;100114.94;;;-2.97;94.92
15634;BME280;14654;48.898;8.308;2023-02-26T05:27:42;100115.13;;;-2.93;95.21
15634;BME280;14654;48.898;8.308;2023-02-26T05:30:08;100118.50;;;-2.92;95.94
15634;BME280;14654;48.898;8.308;2023-02-26T05:32:34;100114.47;;;-2.88;96.58
15634;BME280;14654;48.898;8.308;2023-02-26T05:34:59;100118.19;;;-2.80;96.94
15634;BME280;14654;48.898;8.308;2023-02-26T05:37:25;100121.78;;;-2.75;96.98
15634;BME280;14654;48.898;8.308;2023-02-26T05:39:50;100120.19;;;-2.73;97.07
15634;BME280;14654;48.898;8.308;2023-02-26T05:42:15;100124.81;;;-2.63;96.91
15634;BME280;14654;48.898;8.308;2023-02-26T05:44:40;100129.22;;;-2.58;97.00
15634;BME280;14654;48.898;8.308;2023-02-26T05:47:06;100131.53;;;-2.63;97.30
15634;BME280;14654;48.898;8.308;2023-02-26T05:49:31;100136.75;;;-2.60;97.63
15634;BME280;14654;48.898;8.308;2023-02-26T05:51:56;100139.69;;;-2.51;97.60
15634;BME280;14654;48.898;8.308;2023-02-26T05:54:22;100136.22;;;-2.53;97.29
15634;BME280;14654;48.898;8.308;2023-02-26T05:56:47;100136.22;;;-2.53;96.86
15634;BME280;14654;48.898;8.308;2023-02-26T05:59:13;100131.81;;;-2.57;96.82
15634;BME280;14654;48.898;8.308;2023-02-26T06:01:38;100146.88;;;-2.60;96.89
15634;BME280;14654;48.898;8.308;2023-02-26T06:04:04;100146.63;;;-2.66;97.47
15634;BME280;14654;48.898;8.308;2023-02-26T06:06:30;100155.75;;;-2.70;97.61
15634;BME280;14654;48.898;8.308;2023-02-26T06:08:56;100152.88;;;-2.78;97.87
15634;BME280;14654;48.898;8.308;2023-02-26T06:11:21;100160.38;;;-2.81;98.29
15634;BME280;14654;48.898;8.308;2023-02-26T06:13:47;100155.84;;;-2.88;98.64
15634;BME280;14654;48.898;8.308;2023-02-26T06:16:13;100170.03;;;-2.92;98.44
15634;BME280;14654;48.898;8.308;2023-02-26T06:18:38;100168.22;;;-2.94;98.27
15634;BME280;14654;48.898;8.308;2023-02-26T06:21:04;100176.69;;;-2.94;97.38
15634;BME280;14654;48.898;8.308;2023-02-26T06:23:29;100177.44;;;-2.96;97.40
15634;BME280;14654;48.898;8.308;2023-02-26T06:25:54;100191.09;;;-2.93;97.49
15634;BME280;14654;48.898;8.308;2023-02-26T06:28:20;100192.69;;;-2.95;97.72
15634;BME280;14654;48.898;8.308;2023-02-26T06:30:45;100202.16;;;-2.91;97.85
15634;BME280;14654;48.898;8.308;2023-02-26T06:33:11;100203.97;;;-2.88;97.88
15634;BME280;14654;48.898;8.308;2023-02-26T06:35:36;100209.03;;;-2.88;97.92
15634;BME280;14654;48.898;8.308;2023-02-26T06:38:02;100214.16;;;-2.86;97.93
15634;BME280;14654;48.898;8.308;2023-02-26T06:40:27;100215.22;;;-2.81;98.20
15634;BME280;14654;48.898;8.308;2023-02-26T06:42:53;100220.56;;;-2.75;98.07
15634;BME280;14654;48.898;8.308;2023-02-26T06:45:18;100215.56;;;-2.73;98.22
15634;BME280;14654;48.898;8.308;2023-02-26T06:47:44;100229.44;;;-2.65;97.79
15634;BME280;14654;48.898;8.308;2023-02-26T06:50:10;100239.69;;;-2.62;97.60
15634;BME280;14654;48.898;8.308;2023-02-26T06:52:35;100232.16;;;-2.61;97.22
15634;BME280;14654;48.898;8.308;2023-02-26T06:55:02;100234.56;;;-2.64;96.96
15634;BME280;14654;48.898;8.308;2023-02-26T06:57:27;100232.97;;;-2.62;97.01
15634;BME280;14654;48.898;8.308;2023-02-26T06:59:52;100248.22;;;-2.60;96.77
15634;BME280;14654;48.898;8.308;2023-02-26T07:02:22;100253.50;;;-2.55;97.25
15634;BME280;14654;48.898;8.308;2023-02-26T07:04:48;100257.03;;;-2.52;97.30
15634;BME280;14654;48.898;8.308;2023-02-26T07:07:13;100249.53;;;-2.49;97.14
15634;BME280;14654;48.898;8.308;2023-02-26T07:09:39;100259.03;;;-2.45;97.07
15634;BME280;14654;48.898;8.308;2023-02-26T07:12:04;100258.56;;;-2.36;96.48
15634;BME280;14654;48.898;8.308;2023-02-26T07:14:31;100261.56;;;-2.25;95.94
15634;BME280;14654;48.898;8.308;2023-02-26T07:16:57;100267.88;;;-2.15;95.80
15634;BME280;14654;48.898;8.308;2023-02-26T07:19:22;100279.34;;;-2.04;95.40
15634;BME280;14654;48.898;8.308;2023-02-26T07:21:47;100282.19;;;-1.96;95.10
15634;BME280;14654;48.898;8.308;2023-02-26T07:24:13;100291.72;;;-1.90;94.80
15634;BME280;14654;48.898;8.308;2023-02-26T07:26:38;100281.75;;;-1.86;94.50
15634;BME280;14654;48.898;8.308;2023-02-26T07:29:03;100290.75;;;-1.73;94.51
15634;BME280;14654;48.898;8.308;2023-02-26T07:31:29;100281.69;;;-1.67;94.02
15634;BME280;14654;48.898;8.308;2023-02-26T07:33:54;100290.50;;;-1.58;93.97
15634;BME280;14654;48.898;8.308;2023-02-26T07:36:22;100289.16;;;-1.49;93.97
15634;BME280;14654;48.898;8.308;2023-02-26T07:38:47;100300.28;;;-1.46;93.69
15634;BME280;14654;48.898;8.308;2023-02-26T07:41:12;100311.41;;;-1.42;93.12
15634;BME280;14654;48.898;8.308;2023-02-26T07:43:38;100303.06;;;-1.40;93.20
15634;BME280;14654;48.898;8.308;2023-02-26T07:46:03;100303.25;;;-1.35;93.15
15634;BME280;14654;48.898;8.308;2023-02-26T07:48:29;100303.50;;;-1.29;92.73
15634;BME280;14654;48.898;8.308;2023-02-26T07:50:54;100314.81;;;-1.20;92.69
15634;BME280;14654;48.898;8.308;2023-02-26T07:53:20;100317.63;;;-1.14;92.48
15634;BME280;14654;48.898;8.308;2023-02-26T07:55:46;100310.72;;;-1.17;92.66
15634;BME280;14654;48.898;8.308;2023-02-26T07:58:11;100317.91;;;-1.06;92.71
15634;BME280;14654;48.898;8.308;2023-02-26T08:00:37;100323.38;;;-0.96;92.46
15634;BME280;14654;48.898;8.308;2023-02-26T08:03:02;100322.69;;;-0.92;91.90
15634;BME280;14654;48.898;8.308;2023-02-26T08:05:27;100322.19;;;-0.83;92.10
15634;BME280;14654;48.898;8.308;2023-02-26T08:07:53;100324.84;;;-0.80;91.94
15634;BME280;14654;48.898;8.308;2023-02-26T08:10:18;100329.03;;;-0.80;91.64
15634;BME280;14654;48.898;8.308;2023-02-26T08:12:44;100325.13;;;-0.72;91.22
15634;BME280;14654;48.898;8.308;2023-02-26T08:15:09;100321.31;;;-0.60;90.74
15634;BME280;14654;48.898;8.308;2023-02-26T08:17:37;100312.22;;;-0.54;89.84
15634;BME280;14654;48.898;8.308;2023-02-26T08:20:03;100318.16;;;-0.31;89.77
15634;BME280;14654;48.898;8.308;2023-02-26T08:22:29;100317.09;;;-0.11;88.82
15634;BME280;14654;48.898;8.308;2023-02-26T08:24:54;100313.31;;;0.02;88.55
15634;BME280;14654;48.898;8.308;2023-02-26T08:27:19;100315.06;;;0.03;88.18
15634;BME280;14654;48.898;8.308;2023-02-26T08:29:45;100315.97;;;0.05;87.32
15634;BME280;14654;48.898;8.308;2023-02-26T08:32:11;100311.63;;;0.02;87.12
15634;BME280;14654;48.898;8.308;2023-02-26T08:34:36;100323.69;;;0.08;86.28
15634;BME280;14654;48.898;8.308;2023-02-26T08:37:02;100308.28;;;0.03;86.40
15634;BME280;14654;48.898;8.308;2023-02-26T08:39:27;100318.06;;;0.17;86.09
15634;BME280;14654;48.898;8.308;2023-02-26T08:41:52;100314.69;;;0.18;85.63
15634;BME280;14654;48.898;8.308;2023-02-26T08:44:17;100313.88;;;0.19;85.84
15634;BME280;14654;48.898;8.308;2023-02-26T08:46:43;100321.06;;;0.30;85.73
15634;BME280;14654;48.898;8.308;2023-02-26T08:49:08;100328.75;;;0.32;85.24
15634;BME280;14654;48.898;8.308;2023-02-26T08:51:33;100331.25;;;0.30;84.79
15634;BME280;14654;48.898;8.308;2023-02-26T08:53:59;100330.81;;;0.42;84.53
15634;BME280;14654;48.898;8.308;2023-02-26T08:56:24;100337.00;;;0.51;84.74
15634;BME280;14654;48.898;8.308;2023-02-26T08:58:50;100341.63;;;0.63;84.27
15634;BME280;14654;48.898;8.308;2023-02-26T09:01:15;100340.53;;;0.82;84.53
15634;BME280;14654;48.898;8.308;2023-02-26T09:03:40;100355.00;;;1.10;83.75
15634;BME280;14654;48.898;8.308;2023-02-26T09:06:06;100346.34;;;1.05;81.95
15634;BME280;14654;48.898;8.308;2023-02-26T09:08:31;100353.50;;;0.89;82.32
15634;BME280;14654;48.898;8.308;2023-02-26T09:11:02;100354.78;;;1.02;82.67
15634;BME280;14654;48.898;8.308;2023-02-26T09:13:28;100365.22;;;1.10;82.11
15634;BME280;14654;48.898;8.308;2023-02-26T09:15:54;100364.22;;;1.06;82.14
15634;BME280;14654;48.898;8.308;2023-02-26T09:18:19;100358.66;;;1.18;81.66
15634;BME280;14654;48.898;8.308;2023-02-26T09:20:44;100369.16;;;1.29;82.32
15634;BME280;14654;48.898;8.308;2023-02-26T09:23:10;100363.00;;;1.21;82.37
15634;BME280;14654;48.898;8.308;2023-02-26T09:25:36;100375.66;;;1.19;82.80
15634;BME280;14654;48.898;8.308;2023-02-26T09:28:01;100378.63;;;1.04;82.22
15634;BME280;14654;48.898;8.308;2023-02-26T09:30:27;100376.34;;;0.86;83.21
15634;BME280;14654;48.898;8.308;2023-02-26T09:32:52;100372.00;;;0.82;84.70
15634;BME280;14654;48.898;8.308;2023-02-26T09:35:18;100369.47;;;0.84;84.80
15634;BME280;14654;48.898;8.308;2023-02-26T09:37:43;100381.31;;;0.82;84.02
15634;BME280;14654;48.898;8.308;2023-02-26T09:40:41;100366.91;;;0.82;85.25
15634;BME280;14654;48.898;8.308;2023-02-26T09:46:08;100364.84;;;1.27;81.45
15634;BME280;14654;48.898;8.308;2023-02-26T09:48:35;100374.72;;;1.45;80.38
15634;BME280;14654;48.898;8.308;2023-02-26T09:51:03;100374.59;;;1.40;80.55
15634;BME280;14654;48.898;8.308;2023-02-26T09:53:36;100374.03;;;1.21;81.48
15634;BME280;14654;48.898;8.308;2023-02-26T09:56:09;100376.44;;;1.17;81.60
15634;BME280;14654;48.898;8.308;2023-02-26T09:58:39;100379.44;;;1.03;80.83
15634;BME280;14654;48.898;8.308;2023-02-26T10:01:12;100379.13;;;0.94;81.57
15634;BME280;14654;48.898;8.308;2023-02-26T10:04:22;100379.03;;;0.91;82.34
15634;BME280;14654;48.898;8.308;2023-02-26T10:12:27;100373.34;;;1.00;81.19
15634;BME280;14654;48.898;8.308;2023-02-26T10:15:17;100379.91;;;1.19;80.66
15634;BME280;14654;48.898;8.308;2023-02-26T10:17:56;100386.00;;;1.24;79.41
15634;BME280;14654;48.898;8.308;2023-02-26T10:23:27;100377.28;;;1.45;76.78
15634;BME280;14654;48.898;8.308;2023-02-26T10:28:46;100381.09;;;1.30;79.71
15634;BME280;14654;48.898;8.308;2023-02-26T10:31:28;100391.53;;;1.38;82.46
15634;BME280;14654;48.898;8.308;2023-02-26T10:34:07;100400.78;;;1.34;81.38
15634;BME280;14654;48.898;8.308;2023-02-26T10:46:05;100401.00;;;1.13;79.42
15634;BME280;14654;48.898;8.308;2023-02-26T10:51:32;100410.28;;;1.11;80.23
15634;BME280;14654;48.898;8.308;2023-02-26T10:54:17;100406.03;;;1.12;80.21
15634;BME280;14654;48.898;8.308;2023-02-26T10:56:44;100404.19;;;1.08;78.92
15634;BME280;14654;48.898;8.308;2023-02-26T10:59:09;100405.88;;;1.07;79.48
15634;BME280;14654;48.898;8.308;2023-02-26T11:01:35;100405.09;;;1.10;80.19
15634;BME280;14654;48.898;8.308;2023-02-26T11:04:07;100411.03;;;1.09;80.23
15634;BME280;14654;48.898;8.308;2023-02-26T11:06:38;100411.91;;;1.09;80.02
15634;BME280;14654;48.898;8.308;2023-02-26T11:09:17;100414.59;;;1.14;80.68
15634;BME280;14654;48.898;8.308;2023-02-26T11:14:13;100418.88;;;1.15;79.07
15634;BME280;14654;48.898;8.308;2023-02-26T11:16:51;100408.91;;;1.23;79.90
15634;BME280;14654;48.898;8.308;2023-02-26T11:19:25;100407.09;;;1.18;77.97
15634;BME280;14654;48.898;8.308;2023-02-26T11:21:51;100418.19;;;1.20;78.85
15634;BME280;14654;48.898;8.308;2023-02-26T11:26:53;100418.47;;;1.30;80.64
15634;BME280;14654;48.898;8.308;2023-02-26T11:29:20;100422.91;;;1.35;80.17
15634;BME280;14654;48.898;8.308;2023-02-26T11:31:49;100407.56;;;1.34;79.26
15634;BME280;14654;48.898;8.308;2023-02-26T11:34:14;100429.00;;;1.41;79.29
15634;BME280;14654;48.898;8.308;2023-02-26T11:36:41;100425.16;;;1.54;78.23
15634;BME280;14654;48.898;8.308;2023-02-26T11:39:17;100420.44;;;1.67;77.66
15634;BME280;14654;48.898;8.308;2023-02-26T11:41:45;100428.16;;;1.69;77.66
15634;BME280;14654;48.898;8.308;2023-02-26T11:44:14;100434.91;;;1.67;77.23
15634;BME280;14654;48.898;8.308;2023-02-26T11:46:51;100420.38;;;1.64;76.97
15634;BME280;14654;48.898;8.308;2023-02-26T11:49:20;100427.75;;;1.55;77.47
15634;BME280;14654;48.898;8.308;2023-02-26T11:52:17;100412.19;;;1.47;78.60
15634;BME280;14654;48.898;8.308;2023-02-26T11:54:44;100413.03;;;1.46;83.73
15634;BME280;14654;48.898;8.308;2023-02-26T11:57:19;100434.59;;;1.29;90.02
15634;BME280;14654;48.898;8.308;2023-02-26T11:59:49;100438.38;;;1.14;95.08
15634;BME280;14654;48.898;8.308;2023-02-26T12:02:19;100440.53;;;1.02;98.48
15634;BME280;14654;48.898;8.308;2023-02-26T12:04:52;100433.06;;;0.81;96.06
15634;BME280;14654;48.898;8.308;2023-02-26T12:07:18;100454.22;;;0.78;97.86
15634;BME280;14654;48.898;8.308;2023-02-26T12:09:45;100437.25;;;0.79;98.52
15634;BME280;14654;48.898;8.308;2023-02-26T12:15:21;100426.16;;;1.04;100.00
15634;BME280;14654;48.898;8.308;2023-02-26T12:18:04;100416.44;;;1.18;100.00
15634;BME280;14654;48.898;8.308;2023-02-26T12:37:03;100423.97;;;1.71;92.36
15634;BME280;14654;48.898;8.308;2023-02-26T12:42:35;100433.16;;;1.66;87.98
15634;BME280;14654;48.898;8.308;2023-02-26T12:51:06;100412.47;;;1.86;85.46
15634;BME280;14654;48.898;8.308;2023-02-26T12:56:44;100430.84;;;2.04;85.66
15634;BME280;14654;48.898;8.308;2023-02-26T13:12:47;100425.63;;;2.00;80.05
15634;BME280;14654;48.898;8.308;2023-02-26T13:15:31;100428.91;;;1.95;79.72
15634;BME280;14654;48.898;8.308;2023-02-26T13:18:57;100444.41;;;2.02;79.92
15634;BME280;14654;48.898;8.308;2023-02-26T13:21:32;100424.16;;;2.08;79.73
15634;BME280;14654;48.898;8.308;2023-02-26T13:23:58;100425.22;;;2.16;81.79
15634;BME280;14654;48.898;8.308;2023-02-26T13:26:27;100429.91;;;2.31;80.59
15634;BME280;14654;48.898;8.308;2023-02-26T13:28:59;100424.03;;;2.35;78.33
15634;BME280;14654;48.898;8.308;2023-02-26T13:31:33;100436.75;;;2.34;78.28
15634;BME280;14654;48.898;8.308;2023-02-26T13:34:04;100450.13;;;2.23;83.34
15634;BME280;14654;48.898;8.308;2023-02-26T13:36:32;100434.00;;;2.26;84.23
15634;BME280;14654;48.898;8.308;2023-02-26T13:41:52;100410.69;;;2.46;78.43
15634;BME280;14654;48.898;8.308;2023-02-26T13:44:46;100412.19;;;2.71;77.87
15634;BME280;14654;48.898;8.308;2023-02-26T14:06:46;100438.19;;;2.24;78.09
15634;BME280;14654;48.898;8.308;2023-02-26T14:19:36;100437.00;;;2.43;74.08
15634;BME280;14654;48.898;8.308;2023-02-26T14:24:57;100445.47;;;2.40;73.65
15634;BME280;14654;48.898;8.308;2023-02-26T14:27:39;100452.00;;;2.31;78.84
15634;BME280;14654;48.898;8.308;2023-02-26T14:32:51;100458.63;;;2.24;80.90
15634;BME280;14654;48.898;8.308;2023-02-26T14:38:25;100459.97;;;2.41;75.38
15634;BME280;14654;48.898;8.308;2023-02-26T14:41:05;100463.44;;;2.45;72.78
15634;BME280;14654;48.898;8.308;2023-02-26T14:43:39;100460.88;;;2.43;70.64
15634;BME280;14654;48.898;8.308;2023-02-26T14:46:07;100460.25;;;2.52;71.07
15634;BME280;14654;48.898;8.308;2023-02-26T14:48:35;100470.69;;;2.60;69.95
15634;BME280;14654;48.898;8.308;2023-02-26T15:13:03;100490.22;;;2.58;68.25
15634;BME280;14654;48.898;8.308;2023-02-26T15:16:03;100477.31;;;2.53;67.92
15634;BME280;14654;48.898;8.308;2023-02-26T15:21:06;100490.91;;;2.52;67.33
15634;BME280;14654;48.898;8.308;2023-02-26T15:26:18;100484.91;;;2.50;66.98
15634;BME280;14654;48.898;8.308;2023-02-26T15:28:44;100493.41;;;2.51;66.91
15634;BME280;14654;48.898;8.308;2023-02-26T15:31:10;100479.75;;;2.49;67.51
15634;BME280;14654;48.898;8.308;2023-02-26T15:33:36;100487.41;;;2.49;67.04
15634;BME280;14654;48.898;8.308;2023-02-26T15:36:17;100490.00;;;2.50;67.38
15634;BME280;14654;48.898;8.308;2023-02-26T15:38:48;100492.69;;;2.55;68.00
15634;BME280;14654;48.898;8.308;2023-02-26T15:41:15;100503.69;;;2.52;68.46
15634;BME280;14654;48.898;8.308;2023-02-26T15:43:47;100515.56;;;2.52;68.53
15634;BME280;14654;48.898;8.308;2023-02-26T15:46:13;100495.81;;;2.44;68.69
15634;BME280;14654;48.898;8.308;2023-02-26T15:48:39;100501.75;;;2.43;69.25
15634;BME280;14654;48.898;8.308;2023-02-26T15:51:11;100509.38;;;2.42;69.28
15634;BME280;14654;48.898;8.308;2023-02-26T15:53:43;100520.44;;;2.42;67.74
15634;BME280;14654;48.898;8.308;2023-02-26T15:56:13;100507.56;;;2.39;67.44
15634;BME280;14654;48.898;8.308;2023-02-26T15:58:47;100511.03;;;2.40;66.83
15634;BME280;14654;48.898;8.308;2023-02-26T16:01:23;100525.38;;;2.36;66.22
15634;BME280;14654;48.898;8.308;2023-02-26T16:03:51;100528.75;;;2.35;65.47
15634;BME280;14654;48.898;8.308;2023-02-26T16:06:22;100515.16;;;2.36;66.35
15634;BME280;14654;48.898;8.308;2023-02-26T16:08:47;100509.19;;;2.36;66.67
15634;BME280;14654;48.898;8.308;2023-02-26T16:11:14;100516.75;;;2.33;67.43
15634;BME280;14654;48.898;8.308;2023-02-26T16:13:41;100519.28;;;2.31;67.74